Flight Track Log - Related Links

Times and Time Zones

All times are in EDT time to prevent confusion due to time zone crossing. See the AJX1083 flight status page for this flight to view local times or setup timezone preferences in your user account.

Time Position Orientation Groundspeed Altitude Reporting Facility
EDT Latitude Longitude Course Direction KTS MPH feet Rate Location/Type
Mon 04:56:15 AM 35.7525 140.3578 242° Southwest  Level Estimated
Mon 04:57:15 AM 35.7036 140.2434 242° Southwest  Level Estimated
Mon 04:58:15 AM 35.6547 140.1292 242° Southwest  Level Estimated
Mon 04:59:15 AM 35.6056 140.0151 242° Southwest  Level Estimated
Mon 05:00:15 AM 35.5564 139.9012 242° Southwest  Level Estimated
Mon 05:01:15 AM 35.5070 139.7874 242° Southwest  Level Estimated
Mon 05:02:15 AM 35.4576 139.6738 242° Southwest  Level Estimated
Mon 05:03:15 AM 35.4081 139.5603 242° Southwest  Level Estimated
Mon 05:04:15 AM 35.3585 139.4469 242° Southwest  Level Estimated
Mon 05:05:15 AM 35.3087 139.3336 242° Southwest  Level Estimated
Mon 05:06:15 AM 35.2589 139.2206 242° Southwest  Level Estimated
Mon 05:07:15 AM 35.2090 139.1076 242° Southwest  Level Estimated
Mon 05:08:15 AM 35.1589 138.9948 241° Southwest  Level Estimated
Mon 05:09:15 AM 35.1087 138.8821 241° Southwest  Level Estimated
Mon 05:10:15 AM 35.0585 138.7695 241° Southwest  Level Estimated
Mon 05:11:15 AM 35.0081 138.6571 241° Southwest  Level Estimated
Mon 05:12:15 AM 34.9577 138.5449 241° Southwest  Level Estimated
Mon 05:13:15 AM 34.9071 138.4328 241° Southwest  Level Estimated
Mon 05:14:15 AM 34.8564 138.3208 241° Southwest  Level Estimated
Mon 05:15:15 AM 34.8056 138.2089 241° Southwest  Level Estimated
Mon 05:16:15 AM 34.7548 138.0972 241° Southwest  Level Estimated
Mon 05:17:15 AM 34.7038 137.9856 241° Southwest  Level Estimated
Mon 05:18:15 AM 34.6527 137.8742 241° Southwest  Level Estimated
Mon 05:19:15 AM 34.6015 137.7629 241° Southwest  Level Estimated
Mon 05:20:15 AM 34.5502 137.6517 241° Southwest  Level Estimated
Mon 05:21:15 AM 34.4989 137.5407 241° Southwest  Level Estimated
Mon 05:22:15 AM 34.4474 137.4298 241° Southwest  Level Estimated
Mon 05:23:15 AM 34.3958 137.3191 241° Southwest  Level Estimated
Mon 05:24:15 AM 34.3441 137.2085 240° Southwest  Level Estimated
Mon 05:25:15 AM 34.2923 137.0980 240° Southwest  Level Estimated
Mon 05:26:15 AM 34.2405 136.9877 240° Southwest  Level Estimated
Mon 05:27:15 AM 34.1885 136.8775 240° Southwest  Level Estimated
Mon 05:28:15 AM 34.1364 136.7674 240° Southwest  Level Estimated
Mon 05:29:15 AM 34.0842 136.6575 240° Southwest  Level Estimated
Mon 05:30:15 AM 34.0320 136.5477 240° Southwest  Level Estimated
Mon 05:31:15 AM 33.9796 136.4380 240° Southwest  Level Estimated
Mon 05:32:15 AM 33.9271 136.3285 240° Southwest  Level Estimated
Mon 05:33:15 AM 33.8745 136.2191 240° Southwest  Level Estimated
Mon 05:34:15 AM 33.8219 136.1098 240° Southwest  Level Estimated
Mon 05:35:15 AM 33.7691 136.0007 240° Southwest  Level Estimated
Mon 05:36:15 AM 33.7163 135.8917 240° Southwest  Level Estimated
Mon 05:37:15 AM 33.6633 135.7828 240° Southwest  Level Estimated
Mon 05:38:15 AM 33.6103 135.6741 240° Southwest  Level Estimated
Mon 05:39:15 AM 33.5571 135.5655 240° Southwest  Level Estimated
Mon 05:40:15 AM 33.5039 135.4571 239° Southwest  Level Estimated
Mon 05:41:15 AM 33.4506 135.3488 239° Southwest  Level Estimated
Mon 05:42:15 AM 33.3971 135.2406 239° Southwest  Level Estimated
Mon 05:43:15 AM 33.3436 135.1325 239° Southwest  Level Estimated
Mon 05:44:15 AM 33.2900 135.0246 239° Southwest  Level Estimated
Mon 05:45:15 AM 33.2363 134.9168 239° Southwest  Level Estimated
Mon 05:46:15 AM 33.1825 134.8091 239° Southwest  Level Estimated
Mon 05:47:15 AM 33.1286 134.7016 239° Southwest  Level Estimated
Mon 05:48:15 AM 33.0746 134.5942 239° Southwest  Level Estimated
Mon 05:49:15 AM 33.0206 134.4870 239° Southwest  Level Estimated
Mon 05:50:15 AM 32.9664 134.3798 239° Southwest  Level Estimated
Mon 05:51:15 AM 32.9121 134.2728 239° Southwest  Level Estimated
Mon 05:52:15 AM 32.8578 134.1660 239° Southwest  Level Estimated
Mon 05:53:15 AM 32.8033 134.0592 239° Southwest  Level Estimated
Mon 05:54:15 AM 32.7488 133.9527 239° Southwest  Level Estimated
Mon 05:55:15 AM 32.6942 133.8462 239° Southwest  Level Estimated
Mon 05:56:15 AM 32.6395 133.7398 239° Southwest  Level Estimated
Mon 05:57:15 AM 32.5847 133.6336 238° Southwest  Level Estimated
Mon 05:58:15 AM 32.5298 133.5275 238° Southwest  Level Estimated
Mon 05:59:15 AM 32.4748 133.4216 238° Southwest  Level Estimated
Mon 06:00:15 AM 32.4198 133.3158 238° Southwest  Level Estimated
Mon 06:01:15 AM 32.3646 133.2101 238° Southwest  Level Estimated
Mon 06:02:15 AM 32.3094 133.1045 238° Southwest  Level Estimated
Mon 06:03:15 AM 32.2540 132.9991 238° Southwest  Level Estimated
Mon 06:04:15 AM 32.1986 132.8938 238° Southwest  Level Estimated
Mon 06:05:15 AM 32.1431 132.7886 238° Southwest  Level Estimated
Mon 06:06:15 AM 32.0875 132.6835 238° Southwest  Level Estimated
Mon 06:07:15 AM 32.0318 132.5786 238° Southwest  Level Estimated
Mon 06:08:15 AM 31.9761 132.4738 238° Southwest  Level Estimated
Mon 06:09:15 AM 31.9202 132.3691 238° Southwest  Level Estimated
Mon 06:10:15 AM 31.8643 132.2646 238° Southwest  Level Estimated
Mon 06:11:15 AM 31.8083 132.1602 238° Southwest  Level Estimated
Mon 06:12:15 AM 31.7522 132.0559 238° Southwest  Level Estimated
Mon 06:13:15 AM 31.6960 131.9517 238° Southwest  Level Estimated
Mon 06:14:15 AM 31.6397 131.8477 238° Southwest  Level Estimated
Mon 06:15:15 AM 31.5833 131.7438 237° Southwest  Level Estimated
Mon 06:16:15 AM 31.5269 131.6400 237° Southwest  Level Estimated
Mon 06:17:15 AM 31.4704 131.5363 237° Southwest  Level Estimated
Mon 06:18:15 AM 31.4138 131.4328 237° Southwest  Level Estimated
Mon 06:19:15 AM 31.3571 131.3294 237° Southwest  Level Estimated
Mon 06:20:15 AM 31.3003 131.2261 237° Southwest  Level Estimated
Mon 06:21:15 AM 31.2434 131.1230 237° Southwest  Level Estimated
Mon 06:22:15 AM 31.1865 131.0199 237° Southwest  Level Estimated
Mon 06:23:15 AM 31.1295 130.9170 237° Southwest  Level Estimated
Mon 06:24:15 AM 31.0724 130.8142 237° Southwest  Level Estimated
Mon 06:25:15 AM 31.0152 130.7116 237° Southwest  Level Estimated
Mon 06:26:15 AM 30.9579 130.6090 237° Southwest  Level Estimated
Mon 06:27:15 AM 30.9006 130.5066 237° Southwest  Level Estimated
Mon 06:28:15 AM 30.8431 130.4043 237° Southwest  Level Estimated
Mon 06:29:15 AM 30.7856 130.3021 237° Southwest  Level Estimated
Mon 06:30:15 AM 30.7280 130.2001 237° Southwest  Level Estimated
Mon 06:31:15 AM 30.6704 130.0982 237° Southwest  Level Estimated
Mon 06:32:15 AM 30.6126 129.9964 237° Southwest  Level Estimated
Mon 06:33:15 AM 30.5548 129.8947 237° Southwest  Level Estimated
Mon 06:34:15 AM 30.4969 129.7931 236° Southwest  Level Estimated
Mon 06:35:15 AM 30.4389 129.6917 236° Southwest  Level Estimated
Mon 06:36:15 AM 30.3808 129.5903 236° Southwest  Level Estimated
Mon 06:37:15 AM 30.3227 129.4892 236° Southwest  Level Estimated
Mon 06:38:15 AM 30.2645 129.3881 236° Southwest  Level Estimated
Mon 06:39:15 AM 30.2062 129.2871 236° Southwest  Level Estimated
Mon 06:40:15 AM 30.1478 129.1863 236° Southwest  Level Estimated
Mon 06:41:15 AM 30.0894 129.0855 236° Southwest  Level Estimated
Mon 06:42:15 AM 30.0308 128.9849 236° Southwest  Level Estimated
Mon 06:43:15 AM 29.9722 128.8844 236° Southwest  Level Estimated
Mon 06:44:15 AM 29.9135 128.7841 236° Southwest  Level Estimated
Mon 06:45:15 AM 29.8548 128.6838 236° Southwest  Level Estimated
Mon 06:46:15 AM 29.7960 128.5837 236° Southwest  Level Estimated
Mon 06:47:15 AM 29.7370 128.4837 236° Southwest  Level Estimated
Mon 06:48:15 AM 29.6781 128.3838 236° Southwest  Level Estimated
Mon 06:49:15 AM 29.6190 128.2840 236° Southwest  Level Estimated
Mon 06:50:15 AM 29.5599 128.1843 236° Southwest  Level Estimated
Mon 06:51:15 AM 29.5007 128.0848 236° Southwest  Level Estimated
Mon 06:52:15 AM 29.4414 127.9854 236° Southwest  Level Estimated
Mon 06:53:15 AM 29.3820 127.8861 236° Southwest  Level Estimated
Mon 06:54:15 AM 29.3226 127.7869 235° Southwest  Level Estimated
Mon 06:55:15 AM 29.2631 127.6878 235° Southwest  Level Estimated
Mon 06:56:15 AM 29.2035 127.5888 235° Southwest  Level Estimated
Mon 06:57:15 AM 29.1439 127.4900 235° Southwest  Level Estimated
Mon 06:58:15 AM 29.0842 127.3912 235° Southwest  Level Estimated
Mon 06:59:15 AM 29.0244 127.2926 235° Southwest  Level Estimated
Mon 07:00:15 AM 28.9645 127.1941 235° Southwest  Level Estimated
Mon 07:01:15 AM 28.9046 127.0957 235° Southwest  Level Estimated
Mon 07:02:15 AM 28.8446 126.9974 235° Southwest  Level Estimated
Mon 07:03:15 AM 28.7845 126.8993 235° Southwest  Level Estimated
Mon 07:04:15 AM 28.7244 126.8012 235° Southwest  Level Estimated
Mon 07:05:15 AM 28.6641 126.7033 235° Southwest  Level Estimated
Mon 07:06:15 AM 28.6038 126.6054 235° Southwest  Level Estimated
Mon 07:07:15 AM 28.5435 126.5077 235° Southwest  Level Estimated
Mon 07:08:15 AM 28.4831 126.4101 235° Southwest  Level Estimated
Mon 07:09:15 AM 28.4226 126.3126 235° Southwest  Level Estimated
Mon 07:10:15 AM 28.3620 126.2152 235° Southwest  Level Estimated
Mon 07:11:15 AM 28.3013 126.1180 235° Southwest  Level Estimated
Mon 07:12:15 AM 28.2406 126.0208 235° Southwest  Level Estimated
Mon 07:13:15 AM 28.1799 125.9238 235° Southwest  Level Estimated
Mon 07:14:15 AM 28.1190 125.8268 235° Southwest  Level Estimated
Mon 07:15:15 AM 28.0581 125.7300 234° Southwest  Level Estimated
Mon 07:16:15 AM 27.9971 125.6333 234° Southwest  Level Estimated
Mon 07:17:15 AM 27.9361 125.5367 234° Southwest  Level Estimated
Mon 07:18:15 AM 27.8750 125.4402 234° Southwest  Level Estimated
Mon 07:19:15 AM 27.8138 125.3438 234° Southwest  Level Estimated
Mon 07:20:15 AM 27.7526 125.2475 234° Southwest  Level Estimated
Mon 07:21:15 AM 27.6912 125.1514 234° Southwest  Level Estimated
Mon 07:22:15 AM 27.6299 125.0553 234° Southwest  Level Estimated
Mon 07:23:15 AM 27.5684 124.9593 234° Southwest  Level Estimated
Mon 07:24:15 AM 27.5069 124.8635 234° Southwest  Level Estimated
Mon 07:25:15 AM 27.4453 124.7677 234° Southwest  Level Estimated
Mon 07:26:15 AM 27.3837 124.6721 234° Southwest  Level Estimated
Mon 07:27:15 AM 27.3220 124.5766 234° Southwest  Level Estimated
Mon 07:28:15 AM 27.2602 124.4811 234° Southwest  Level Estimated
Mon 07:29:15 AM 27.1984 124.3858 234° Southwest  Level Estimated
Mon 07:30:15 AM 27.1365 124.2906 234° Southwest  Level Estimated
Mon 07:31:15 AM 27.0745 124.1955 234° Southwest  Level Estimated
Mon 07:32:15 AM 27.0125 124.1005 234° Southwest  Level Estimated
Mon 07:33:15 AM 26.9504 124.0056 234° Southwest  Level Estimated
Mon 07:34:15 AM 26.8882 123.9108 234° Southwest  Level Estimated
Mon 07:35:15 AM 26.8260 123.8161 234° Southwest  Level Estimated
Mon 07:36:15 AM 26.7637 123.7215 234° Southwest  Level Estimated
Mon 07:37:15 AM 26.7014 123.6271 234° Southwest  Level Estimated
Mon 07:38:15 AM 26.6390 123.5327 233° Southwest  Level Estimated
Mon 07:39:15 AM 26.5765 123.4384 233° Southwest  Level Estimated
Mon 07:40:15 AM 26.5140 123.3443 233° Southwest  Level Estimated
Mon 07:41:15 AM 26.4514 123.2502 233° Southwest  Level Estimated
Mon 07:42:15 AM 26.3887 123.1562 233° Southwest  Level Estimated
Mon 07:43:15 AM 26.3260 123.0624 233° Southwest  Level Estimated
Mon 07:44:15 AM 26.2632 122.9686 233° Southwest  Level Estimated
Mon 07:45:15 AM 26.2004 122.8749 233° Southwest  Level Estimated
Mon 07:46:15 AM 26.1375 122.7814 233° Southwest  Level Estimated
Mon 07:47:15 AM 26.0745 122.6879 233° Southwest  Level Estimated
Mon 07:48:15 AM 26.0115 122.5946 233° Southwest  Level Estimated
Mon 07:49:15 AM 25.9484 122.5013 233° Southwest  Level Estimated
Mon 07:50:15 AM 25.8853 122.4081 233° Southwest  Level Estimated
Mon 07:51:15 AM 25.8221 122.3151 233° Southwest  Level Estimated
Mon 07:52:15 AM 25.7588 122.2221 233° Southwest  Level Estimated
Mon 07:53:15 AM 25.6955 122.1293 233° Southwest  Level Estimated
Mon 07:54:15 AM 25.6321 122.0365 233° Southwest  Level Estimated
Mon 07:55:15 AM 25.5687 121.9438 233° Southwest  Level Estimated
Mon 07:56:15 AM 25.5052 121.8513 233° Southwest  Level Estimated
Mon 07:57:15 AM 25.4416 121.7588 233° Southwest  Level Estimated
Mon 07:58:15 AM 25.3780 121.6664 233° Southwest  Level Estimated
Mon 07:59:15 AM 25.3143 121.5742 233° Southwest  Level Estimated
Mon 08:00:15 AM 25.2506 121.4820 233° Southwest  Level Estimated
Mon 08:01:15 AM 25.1868 121.3899 233° Southwest  Level Estimated
Mon 08:02:15 AM 25.1230 121.2979 233° Southwest  Level Estimated
Mon 08:03:15 AM 25.0591 121.2061 52° Northeast  Level Estimated
Mon 08:04:15 AM 25.1230 121.2980 233° Southwest  Level Estimated
Mon 08:05:15 AM 25.0591 121.2061 52° Northeast  Level Estimated
Mon 08:06:15 AM 25.1230 121.2980 233° Southwest  Level Estimated
Mon 08:07:15 AM 25.0591 121.2061 52° Northeast  Level Estimated
Mon 08:08:15 AM 25.1230 121.2980 233° Southwest  Level Estimated
Mon 08:09:15 AM 25.0591 121.2061 52° Northeast  Level Estimated
Mon 08:10:15 AM 25.1230 121.2980 233° Southwest  Level Estimated
Mon 08:11:15 AM 25.0591 121.2061 52° Northeast  Level Estimated
Mon 08:12:15 AM 25.1230 121.2980 233° Southwest  Level Estimated
Mon 08:13:15 AM 25.0591 121.2061 233° Southwest  Level Estimated

Login

Don't have an account? Register now (free) for customized features, flight alerts, and more!